createdAt,value
2019-03-18T00:03:03.987Z,3.3
2019-03-18T00:08:03.933Z,3.3
2019-03-18T00:12:27.707Z,3.3
2019-03-18T00:17:27.928Z,3.4
2019-03-18T00:22:27.451Z,3.4
2019-03-18T00:27:27.675Z,3.4
2019-03-18T00:32:28.097Z,3.3
2019-03-18T00:37:28.431Z,3.2
2019-03-18T00:42:28.009Z,3.2
2019-03-18T00:47:28.426Z,3.2
2019-03-18T00:52:29.487Z,3.2
2019-03-18T00:57:28.785Z,3.1
2019-03-18T01:02:28.345Z,3.1
2019-03-18T01:07:28.210Z,3.1
2019-03-18T01:12:27.647Z,3.0
2019-03-18T01:17:27.925Z,3.0
2019-03-18T01:22:27.774Z,2.9
2019-03-18T01:27:28.073Z,2.9
2019-03-18T01:32:28.669Z,2.8
2019-03-18T01:37:28.335Z,2.8
2019-03-18T01:42:28.194Z,2.7
2019-03-18T01:47:28.338Z,2.7
2019-03-18T01:52:28.194Z,2.7
2019-03-18T01:57:28.172Z,2.6
2019-03-18T02:02:27.528Z,2.6
2019-03-18T02:07:27.912Z,2.6
2019-03-18T02:12:28.788Z,2.6
2019-03-18T02:17:28.156Z,2.6
2019-03-18T02:22:28.061Z,2.5
2019-03-18T02:27:28.321Z,2.5
2019-03-18T02:32:27.665Z,2.5
2019-03-18T02:37:28.653Z,2.4
2019-03-18T02:42:27.914Z,2.5
2019-03-18T02:47:27.697Z,2.4
2019-03-18T02:52:29.433Z,2.4
2019-03-18T02:57:27.179Z,2.4
2019-03-18T03:02:27.606Z,2.4
2019-03-18T03:07:28.756Z,2.6
2019-03-18T03:12:28.129Z,2.6
2019-03-18T03:17:27.948Z,2.8
2019-03-18T03:22:27.997Z,2.9
2019-03-18T03:27:27.910Z,2.9
2019-03-18T03:32:28.620Z,3.0
2019-03-18T03:37:28.625Z,3.0
2019-03-18T03:42:28.182Z,3.1
2019-03-18T03:47:27.950Z,3.1
2019-03-18T03:52:28.055Z,3.1
2019-03-18T03:57:27.570Z,3.1
2019-03-18T04:02:27.236Z,3.1
2019-03-18T04:07:28.549Z,3.2
2019-03-18T04:12:27.696Z,3.1
2019-03-18T04:17:28.329Z,3.3
2019-03-18T04:22:28.456Z,3.3
2019-03-18T04:27:27.857Z,3.3
2019-03-18T04:32:28.546Z,3.2
2019-03-18T04:37:27.951Z,3.0
2019-03-18T04:42:28.370Z,2.9
2019-03-18T04:47:27.720Z,2.9
2019-03-18T04:52:28.351Z,3.0
2019-03-18T04:57:27.730Z,3.0
2019-03-18T05:02:27.809Z,3.2
2019-03-18T05:07:28.326Z,3.1
2019-03-18T05:12:29.369Z,3.3
2019-03-18T05:17:30.460Z,3.4
2019-03-18T05:22:29.360Z,3.5
2019-03-18T05:27:28.574Z,3.6
2019-03-18T05:32:29.641Z,3.6
2019-03-18T05:37:28.140Z,3.7
2019-03-18T05:42:28.803Z,3.8
2019-03-18T05:47:38.465Z,3.9
2019-03-18T05:52:29.103Z,3.8
2019-03-18T05:57:28.139Z,3.8
2019-03-18T06:02:28.433Z,3.7
2019-03-18T06:07:28.848Z,3.6
2019-03-18T06:12:28.627Z,3.8
2019-03-18T06:17:29.454Z,3.8
2019-03-18T06:22:28.386Z,3.8
2019-03-18T06:27:28.831Z,4.1
2019-03-18T06:32:28.084Z,4.0
2019-03-18T06:37:28.703Z,4.3
2019-03-18T06:42:28.832Z,4.5
2019-03-18T06:47:28.549Z,4.7
2019-03-18T06:52:27.808Z,4.8
2019-03-18T06:57:28.762Z,5.0
2019-03-18T07:02:28.845Z,5.2
2019-03-18T07:07:29.361Z,5.4
2019-03-18T07:12:28.763Z,5.4
2019-03-18T07:17:28.848Z,5.7
2019-03-18T07:22:28.277Z,5.9
2019-03-18T07:27:28.725Z,5.8
2019-03-18T07:32:27.875Z,5.5
2019-03-18T07:37:28.098Z,5.8
2019-03-18T07:42:28.740Z,6.5
2019-03-18T07:47:28.083Z,6.4
2019-03-18T07:52:28.791Z,5.8
2019-03-18T07:57:28.287Z,5.4
2019-03-18T08:02:29.392Z,5.1
2019-03-18T08:07:28.946Z,5.2
2019-03-18T08:12:28.800Z,5.5
2019-03-18T08:17:28.827Z,5.5
2019-03-18T08:22:27.960Z,6.0
2019-03-18T08:27:28.383Z,6.7
2019-03-18T08:32:28.654Z,6.8
2019-03-18T08:37:28.947Z,7.1
2019-03-18T08:42:28.720Z,7.9
2019-03-18T08:47:29.653Z,7.8
2019-03-18T08:52:27.820Z,7.7
2019-03-18T08:57:28.571Z,8.4
2019-03-18T09:02:29.683Z,8.5
2019-03-18T09:07:29.475Z,8.4
2019-03-18T09:12:28.068Z,8.5
2019-03-18T09:17:29.225Z,8.7
2019-03-18T09:22:28.838Z,8.6
2019-03-18T09:27:28.321Z,9.0
2019-03-18T09:32:28.185Z,8.5
2019-03-18T09:37:28.715Z,8.1
2019-03-18T09:42:29.615Z,7.6
2019-03-18T09:47:28.593Z,7.4
2019-03-18T09:52:28.113Z,7.5
2019-03-18T09:57:28.594Z,7.3
2019-03-18T10:02:28.137Z,6.8
2019-03-18T10:07:28.381Z,6.7
2019-03-18T10:12:28.313Z,6.7
2019-03-18T10:17:28.696Z,6.6
2019-03-18T10:22:28.168Z,6.5
2019-03-18T10:27:28.692Z,7.0
2019-03-18T10:32:28.875Z,7.6
2019-03-18T10:37:27.874Z,8.4
2019-03-18T10:42:28.152Z,8.6
2019-03-18T10:47:29.310Z,8.9
2019-03-18T10:52:28.551Z,9.4
2019-03-18T10:57:28.600Z,9.7
2019-03-18T11:02:28.860Z,10.0
2019-03-18T11:07:29.287Z,9.8
2019-03-18T11:12:28.564Z,9.9
2019-03-18T11:17:29.318Z,10.1
2019-03-18T11:22:28.860Z,10.0
2019-03-18T11:27:28.526Z,9.9
2019-03-18T11:32:28.668Z,9.9
2019-03-18T11:37:29.123Z,9.9
2019-03-18T11:42:28.111Z,10.3
2019-03-18T11:47:29.721Z,10.3
2019-03-18T11:52:28.694Z,10.8
2019-03-18T11:57:28.474Z,11.2
2019-03-18T12:02:30.648Z,11.2
2019-03-18T12:07:29.092Z,11.0
2019-03-18T12:12:28.608Z,11.0
2019-03-18T12:17:29.173Z,10.6
2019-03-18T12:22:30.089Z,10.5
2019-03-18T12:27:28.763Z,10.7
2019-03-18T12:32:28.723Z,10.7
2019-03-18T12:37:29.564Z,10.5
2019-03-18T12:42:29.658Z,10.2
2019-03-18T12:47:27.893Z,10.0
2019-03-18T12:52:28.954Z,9.8
2019-03-18T12:57:28.676Z,10.2
2019-03-18T13:02:29.210Z,10.9
2019-03-18T13:07:28.689Z,11.6
2019-03-18T13:12:28.362Z,11.2
2019-03-18T13:17:29.531Z,10.5
2019-03-18T13:22:28.534Z,10.3
2019-03-18T13:27:28.015Z,10.5
2019-03-18T13:32:28.436Z,10.8
2019-03-18T13:37:28.791Z,11.3
2019-03-18T13:42:27.768Z,11.5
2019-03-18T13:47:30.475Z,11.5
2019-03-18T13:52:28.147Z,11.2
2019-03-18T13:57:29.452Z,10.7
2019-03-18T14:02:28.097Z,9.6
2019-03-18T14:07:28.981Z,9.0
2019-03-18T14:12:29.805Z,9.0
2019-03-18T14:17:28.992Z,9.7
2019-03-18T14:22:27.724Z,10.7
2019-03-18T14:27:28.828Z,10.7
2019-03-18T14:32:29.635Z,10.4
2019-03-18T14:37:29.557Z,11.1
2019-03-18T14:42:28.929Z,11.5
2019-03-18T14:47:28.043Z,11.5
2019-03-18T14:52:28.348Z,10.4
2019-03-18T14:57:28.825Z,10.4
2019-03-18T15:02:28.991Z,10.1
2019-03-18T15:07:28.485Z,12.0
2019-03-18T15:12:28.436Z,11.3
2019-03-18T15:17:28.881Z,9.9
2019-03-18T15:22:28.648Z,9.8
2019-03-18T15:27:28.328Z,9.7
2019-03-18T15:32:28.458Z,13.2
2019-03-18T15:37:27.942Z,13.1
2019-03-18T15:42:28.365Z,19.5
2019-03-18T15:47:28.475Z,23.1
2019-03-18T15:52:28.290Z,24.8
2019-03-18T15:57:29.691Z,26.6
2019-03-18T16:02:28.756Z,26.5
2019-03-18T16:07:28.742Z,27.7
2019-03-18T16:12:29.129Z,27.6
2019-03-18T16:17:29.758Z,27.3
2019-03-18T16:22:28.287Z,27.2
2019-03-18T16:27:28.625Z,27.2
2019-03-18T16:32:29.558Z,26.9
2019-03-18T16:37:28.252Z,26.9
2019-03-18T16:42:28.186Z,26.3
2019-03-18T16:47:31.143Z,25.8
2019-03-18T16:52:35.476Z,25.6
2019-03-18T16:57:27.957Z,24.6
2019-03-18T17:02:27.902Z,23.4
2019-03-18T17:07:28.557Z,18.8
2019-03-18T17:12:28.071Z,18.6
2019-03-18T17:17:28.986Z,19.2
2019-03-18T17:22:28.796Z,19.1
2019-03-18T17:27:29.075Z,17.8
2019-03-18T17:32:30.174Z,14.8
2019-03-18T17:37:28.462Z,12.6
2019-03-18T17:42:28.240Z,10.3
2019-03-18T17:47:28.534Z,10.2
2019-03-18T17:52:29.240Z,9.7
2019-03-18T17:57:28.980Z,9.2
2019-03-18T18:02:28.723Z,8.8
2019-03-18T18:07:28.806Z,8.5
2019-03-18T18:12:28.796Z,8.2
2019-03-18T18:17:29.086Z,7.9
2019-03-18T18:22:29.002Z,7.5
2019-03-18T18:27:28.537Z,7.3
2019-03-18T18:32:27.810Z,7.1
2019-03-18T18:37:27.973Z,6.9
2019-03-18T18:42:28.596Z,6.7
2019-03-18T18:47:27.542Z,6.5
2019-03-18T18:52:28.688Z,6.5
2019-03-18T18:57:27.938Z,6.4
2019-03-18T19:02:28.596Z,6.2
2019-03-18T19:07:27.463Z,5.9
2019-03-18T19:12:27.924Z,5.8
2019-03-18T19:17:28.766Z,5.6
2019-03-18T19:22:28.094Z,5.6
2019-03-18T19:27:27.506Z,5.7
2019-03-18T19:32:28.634Z,5.6
2019-03-18T19:37:27.685Z,5.7
2019-03-18T19:42:28.092Z,5.7
2019-03-18T19:47:28.806Z,5.7
2019-03-18T19:52:28.793Z,5.5
2019-03-18T19:57:28.182Z,5.5
2019-03-18T20:02:28.683Z,5.4
2019-03-18T20:07:28.396Z,5.3
2019-03-18T20:12:27.709Z,5.2
2019-03-18T20:17:28.685Z,5.0
2019-03-18T20:22:27.782Z,4.8
2019-03-18T20:27:28.000Z,4.5
2019-03-18T20:32:28.773Z,4.5
2019-03-18T20:37:27.947Z,4.5
2019-03-18T20:42:27.947Z,4.5
2019-03-18T20:47:28.072Z,4.4
2019-03-18T20:52:28.173Z,4.5
2019-03-18T20:57:27.569Z,4.4
2019-03-18T21:02:28.760Z,4.3
2019-03-18T21:07:28.232Z,4.2
2019-03-18T21:12:28.228Z,4.1
2019-03-18T21:17:27.955Z,4.1
2019-03-18T21:22:28.052Z,4.0
2019-03-18T21:27:28.176Z,4.0
2019-03-18T21:32:28.266Z,4.0
2019-03-18T21:37:27.718Z,4.0
2019-03-18T21:42:28.232Z,4.0
2019-03-18T21:47:28.976Z,3.8
2019-03-18T21:52:28.268Z,3.7
2019-03-18T21:57:27.628Z,3.7
2019-03-18T22:02:29.227Z,3.7
2019-03-18T22:07:28.701Z,3.7
2019-03-18T22:12:27.933Z,3.7
2019-03-18T22:17:28.010Z,3.7
2019-03-18T22:22:28.638Z,3.7
2019-03-18T22:27:27.601Z,3.8
2019-03-18T22:32:28.313Z,3.9
2019-03-18T22:37:27.798Z,3.8
2019-03-18T22:42:28.218Z,3.8
2019-03-18T22:47:27.887Z,4.0
2019-03-18T22:52:28.505Z,4.1
2019-03-18T22:57:28.018Z,4.0
2019-03-18T23:02:28.094Z,4.2
2019-03-18T23:07:27.934Z,4.2
2019-03-18T23:12:27.613Z,4.2
2019-03-18T23:22:45.173Z,4.0
2019-03-18T23:27:43.759Z,3.8
2019-03-18T23:32:44.197Z,3.7
2019-03-18T23:37:43.950Z,3.6
2019-03-18T23:42:43.647Z,3.4
2019-03-18T23:47:44.779Z,3.2
2019-03-18T23:52:44.195Z,3.1
2019-03-18T23:57:44.947Z,3.1
